Terminal Aerodrome Forecast
Issued by NWS

Home | Current Version | Previous Version | Text Only | Print | Product List | Glossary On
Versions: 1 2 3 4 5 6 7 8 9 10 11 12 13 14
000
FTAK31 PANC 102343
TAFAHO
TAF
PAHO 102343Z 1100/1124 03015G25KT 4SM -RA OVC030
      TEMPO 1100/1104 6SM -RA BR SCT030 OVC040
     FM110400 07025G35KT 3SM -RA SCT015 BKN022
     FM110800 09015G22KT 6SM -RA SCT020 BKN030
     FM111400 16022G32KT P6SM -SHRA SCT025 BKN040
     FM111900 16015G22KT P6SM VCSH SCT045 BKN080=

USA.gov is the U.S. government's official web portal to all federal, state and local government web resources and services.